Time;durP1;ratioP1;P1;durP2;ratioP2;P2;SDS_P1;SDS_P2;PMS_P1;PMS_P2;Temp;Humidity;BMP_temperature;BMP_pressure;BME280_temperature;BME280_humidity;BME280_pressure;Samples;Min_cycle;Max_cycle;Signal;HPM_P1;HPM_P2
2023/01/10 00:01:27;;;;;;;23.33;8.77;;;6.80;99.90;;;;;;5048685;28;20078;-52
2023/01/10 00:03:53;;;;;;;19.35;9.00;;;6.70;99.90;;;;;;5048490;28;20029;-50
2023/01/10 00:06:18;;;;;;;18.88;7.88;;;6.80;99.90;;;;;;5047495;28;20017;-49
2023/01/10 00:08:44;;;;;;;19.52;8.85;;;6.70;99.90;;;;;;5048764;28;20053;-52
2023/01/10 00:13:55;;;;;;;17.90;7.63;;;6.70;99.90;;;;;;5028176;28;20071;-50
2023/01/10 00:16:21;;;;;;;17.73;6.78;;;6.70;99.90;;;;;;5028529;28;20075;-51
2023/01/10 00:18:46;;;;;;;19.77;8.45;;;6.70;99.90;;;;;;5036589;28;20112;-49
2023/01/10 00:21:13;;;;;;;22.60;8.27;;;6.70;99.90;;;;;;5063912;28;20104;-52
2023/01/10 00:23:40;;;;;;;13.73;6.82;;;6.70;99.90;;;;;;5071486;28;20051;-51
2023/01/10 00:26:06;;;;;;;20.65;6.55;;;6.70;99.90;;;;;;5070568;28;20024;-49
2023/01/10 00:28:33;;;;;;;16.63;6.78;;;6.80;99.90;;;;;;5070557;28;20105;-49
2023/01/10 00:31:03;;;;;;;13.43;6.60;;;6.80;99.90;;;;;;5071937;28;20028;-49
2023/01/10 00:33:30;;;;;;;17.70;7.97;;;6.80;99.90;;;;;;5071447;28;20025;-51
2023/01/10 00:35:56;;;;;;;17.88;6.88;;;6.80;99.90;;;;;;5071831;28;20021;-49
2023/01/10 00:38:22;;;;;;;21.10;8.27;;;6.80;99.90;;;;;;5071441;28;20115;-50
2023/01/10 00:40:47;;;;;;;17.90;8.13;;;6.80;99.90;;;;;;5058853;28;20021;-49
2023/01/10 00:45:57;;;;;;;18.35;7.38;;;6.80;99.90;;;;;;5050581;28;20094;-49
2023/01/10 00:48:23;;;;;;;21.35;8.60;;;6.80;99.90;;;;;;5051610;28;20258;-50
2023/01/10 00:50:48;;;;;;;25.45;7.88;;;6.80;99.90;;;;;;5051759;28;20443;-51
2023/01/10 00:53:15;;;;;;;17.13;7.57;;;6.80;99.90;;;;;;5051154;28;20029;-49
2023/01/10 00:55:40;;;;;;;26.13;7.75;;;6.80;99.90;;;;;;5051211;28;20103;-49
2023/01/10 00:58:09;;;;;;;17.67;7.78;;;6.70;99.90;;;;;;5051124;28;20049;-49
2023/01/10 01:00:35;;;;;;;24.20;8.10;;;6.70;99.90;;;;;;5049462;28;20025;-51
2023/01/10 01:03:01;;;;;;;19.02;8.38;;;6.80;99.90;;;;;;5050369;28;20524;-50
2023/01/10 01:05:26;;;;;;;26.77;7.70;;;6.80;99.90;;;;;;5051158;28;20592;-49
2023/01/10 01:07:52;;;;;;;21.85;7.47;;;6.80;99.90;;;;;;5051149;28;20032;-51
2023/01/10 01:10:27;;;;;;;31.35;9.35;;;6.70;99.90;;;;;;5050817;28;20057;-49
2023/01/10 01:13:20;;;;;;;25.73;9.10;;;6.80;99.90;;;;;;5042765;28;20371;-50
2023/01/10 01:15:45;;;;;;;23.38;9.30;;;6.80;99.90;;;;;;5053608;28;20029;-52
2023/01/10 01:18:12;;;;;;;21.48;8.85;;;6.80;99.90;;;;;;5060814;28;20119;-50
2023/01/10 01:20:40;;;;;;;30.33;8.57;;;6.80;99.90;;;;;;5053848;28;20167;-48
2023/01/10 01:23:05;;;;;;;24.52;9.40;;;6.80;99.90;;;;;;5050639;28;20398;-49
2023/01/10 01:25:31;;;;;;;18.55;9.52;;;6.80;99.90;;;;;;5050872;28;20025;-51
2023/01/10 01:27:57;;;;;;;20.85;9.10;;;6.80;99.90;;;;;;5049600;28;20055;-50
2023/01/10 01:30:22;;;;;;;28.73;9.75;;;6.80;99.90;;;;;;5049914;28;20371;-50
2023/01/10 01:32:48;;;;;;;22.05;9.63;;;6.80;99.90;;;;;;5050445;28;20061;-51
2023/01/10 01:35:15;;;;;;;23.35;9.73;;;6.80;99.90;;;;;;5051086;28;20048;-49
2023/01/10 01:37:42;;;;;;;21.25;9.63;;;6.80;99.90;;;;;;5051232;28;20072;-52
2023/01/10 01:40:18;;;;;;;19.67;8.82;;;6.80;99.90;;;;;;5050750;28;20052;-51
2023/01/10 01:42:46;;;;;;;22.42;10.27;;;6.80;99.90;;;;;;5049889;28;20029;-51
2023/01/10 01:45:34;;;;;;;23.25;9.32;;;6.80;99.90;;;;;;5050773;28;20040;-48
2023/01/10 01:48:03;;;;;;;21.38;8.95;;;6.70;99.90;;;;;;5050806;28;20013;-52
2023/01/10 01:50:39;;;;;;;24.90;9.32;;;6.80;99.90;;;;;;5049249;28;20394;-50
2023/01/10 01:53:12;;;;;;;27.52;10.95;;;6.70;99.90;;;;;;5050216;28;20079;-50
2023/01/10 01:55:38;;;;;;;29.45;10.20;;;6.80;99.90;;;;;;5050598;28;20024;-51
2023/01/10 01:58:11;;;;;;;19.83;10.20;;;6.80;99.90;;;;;;5055713;28;20024;-51
2023/01/10 02:00:37;;;;;;;28.02;9.85;;;6.80;99.90;;;;;;5050396;28;20083;-50
2023/01/10 02:03:04;;;;;;;32.55;11.48;;;6.80;99.90;;;;;;5049638;28;20037;-49
2023/01/10 02:05:33;;;;;;;22.90;9.93;;;6.80;99.90;;;;;;5048938;28;20024;-49
2023/01/10 02:08:01;;;;;;;30.45;11.50;;;6.80;99.90;;;;;;5050257;28;20025;-49
2023/01/10 02:10:54;;;;;;;35.47;12.73;;;6.80;99.90;;;;;;5049901;28;20498;-51
2023/01/10 02:13:23;;;;;;;27.23;10.55;;;6.80;99.90;;;;;;5049583;28;20029;-50
2023/01/10 02:15:49;;;;;;;23.65;10.82;;;6.80;99.90;;;;;;5049690;28;20051;-51
2023/01/10 02:18:16;;;;;;;30.60;12.43;;;6.80;99.90;;;;;;5049928;28;20021;-51
2023/01/10 02:21:03;;;;;;;23.38;10.48;;;6.80;99.90;;;;;;5043252;28;20482;-49
2023/01/10 02:24:13;;;;;;;23.73;11.52;;;6.80;99.90;;;;;;5039411;28;20029;-51
2023/01/10 02:26:59;;;;;;;24.98;12.32;;;6.80;99.90;;;;;;5042308;28;20009;-49
2023/01/10 02:29:47;;;;;;;20.50;10.75;;;6.80;99.90;;;;;;5047341;28;20486;-51
2023/01/10 02:32:27;;;;;;;25.77;12.18;;;6.80;99.90;;;;;;5046857;28;20036;-49
2023/01/10 02:35:25;;;;;;;21.90;12.48;;;6.70;99.90;;;;;;5041938;28;20521;-51
2023/01/10 02:38:03;;;;;;;24.63;11.55;;;6.80;99.90;;;;;;5035464;28;20554;-49
2023/01/10 02:40:46;;;;;;;23.85;11.98;;;6.80;99.90;;;;;;5043149;28;20067;-50
2023/01/10 02:43:18;;;;;;;23.00;11.95;;;6.80;99.90;;;;;;5047383;28;20017;-51
2023/01/10 02:45:43;;;;;;;29.48;11.90;;;6.70;99.90;;;;;;5047660;28;20028;-51
2023/01/10 02:48:09;;;;;;;28.27;12.50;;;6.70;99.90;;;;;;5048272;28;20017;-52
2023/01/10 02:50:35;;;;;;;34.65;14.63;;;6.70;99.90;;;;;;5023907;28;20033;-49
2023/01/10 02:53:09;;;;;;;25.27;11.90;;;6.70;99.90;;;;;;5034704;28;20461;-52
2023/01/10 02:56:17;;;;;;;26.48;13.65;;;6.60;99.90;;;;;;5039525;28;20104;-52
2023/01/10 02:59:31;;;;;;;31.33;12.88;;;6.60;99.90;;;;;;5046578;28;20053;-52
2023/01/10 03:02:20;;;;;;;29.33;12.35;;;6.60;99.90;;;;;;5025217;28;20090;-49
2023/01/10 03:05:40;;;;;;;28.42;13.35;;;6.60;99.90;;;;;;5038494;28;20020;-49
2023/01/10 03:08:20;;;;;;;24.63;12.02;;;6.60;99.90;;;;;;5003939;28;20022;-49
2023/01/10 03:11:00;;;;;;;26.58;13.13;;;6.60;99.90;;;;;;5044277;28;20027;-51
2023/01/10 03:13:48;;;;;;;29.30;14.82;;;6.60;99.90;;;;;;5041346;28;20053;-50
2023/01/10 03:16:17;;;;;;;27.92;13.77;;;6.50;99.90;;;;;;5063587;28;20028;-52
2023/01/10 03:18:54;;;;;;;26.52;13.00;;;6.50;99.90;;;;;;5066995;28;20702;-51
2023/01/10 03:21:23;;;;;;;29.77;13.68;;;6.60;99.90;;;;;;5049002;28;20045;-52
2023/01/10 03:23:51;;;;;;;29.30;14.10;;;6.50;99.90;;;;;;5047021;28;20036;-52
2023/01/10 03:26:25;;;;;;;26.08;13.52;;;6.60;99.90;;;;;;5048732;28;20031;-54
2023/01/10 03:28:56;;;;;;;26.98;13.85;;;6.60;99.90;;;;;;5047355;28;20025;-49
2023/01/10 03:31:31;;;;;;;27.63;14.65;;;6.60;99.90;;;;;;5047200;28;20033;-49
2023/01/10 03:34:02;;;;;;;33.05;14.15;;;6.60;99.90;;;;;;5062138;28;20029;-48
2023/01/10 03:36:33;;;;;;;23.23;13.25;;;6.60;99.90;;;;;;5049353;28;20047;-52
2023/01/10 03:39:16;;;;;;;;;;;6.60;99.90;;;;;;5068280;28;20031;-49
2023/01/10 03:42:05;;;;;;;29.50;13.55;;;6.60;99.90;;;;;;5044395;28;20222;-48
2023/01/10 03:44:52;;;;;;;26.75;14.23;;;6.60;99.90;;;;;;5039481;28;20160;-50
2023/01/10 03:47:33;;;;;;;25.48;14.63;;;6.50;99.90;;;;;;5027354;28;20029;-52
2023/01/10 03:50:12;;;;;;;24.52;13.73;;;6.50;99.90;;;;;;5028719;28;20318;-51
2023/01/10 03:52:41;;;;;;;25.88;13.60;;;6.50;99.90;;;;;;5028444;28;20057;-52
2023/01/10 03:55:09;;;;;;;26.13;13.00;;;6.50;99.90;;;;;;5038752;28;20025;-52
2023/01/10 03:57:35;;;;;;;26.48;13.15;;;6.50;99.90;;;;;;5051827;28;20025;-53
2023/01/10 04:00:01;;;;;;;26.38;13.48;;;6.60;99.90;;;;;;5038588;28;20029;-52
2023/01/10 04:02:29;;;;;;;30.75;14.10;;;6.60;99.90;;;;;;5032066;28;20036;-52
2023/01/10 04:04:57;;;;;;;27.38;13.55;;;6.60;99.90;;;;;;5032141;28;20025;-52
2023/01/10 04:07:24;;;;;;;34.63;14.20;;;6.50;99.90;;;;;;5032448;28;20498;-52
2023/01/10 04:09:50;;;;;;;25.65;13.23;;;6.50;99.90;;;;;;5035330;28;20337;-53
2023/01/10 04:12:16;;;;;;;29.63;11.63;;;6.50;99.90;;;;;;5051444;28;20037;-51
2023/01/10 04:14:45;;;;;;;25.73;12.00;;;6.50;99.90;;;;;;5051012;28;20138;-52
2023/01/10 04:17:12;;;;;;;23.92;12.15;;;6.60;99.90;;;;;;5052248;28;20063;-51
2023/01/10 04:19:38;;;;;;;21.60;10.98;;;6.60;99.90;;;;;;5050775;28;20094;-51
2023/01/10 04:22:04;;;;;;;24.80;10.93;;;6.60;99.90;;;;;;5051728;28;20485;-50
2023/01/10 04:24:30;;;;;;;23.85;11.85;;;6.60;99.90;;;;;;5050396;28;20137;-52
2023/01/10 04:26:56;;;;;;;22.15;12.43;;;6.60;99.90;;;;;;5063395;28;20128;-53
2023/01/10 04:29:22;;;;;;;21.90;11.02;;;6.60;99.90;;;;;;5071920;28;20066;-53
2023/01/10 04:31:48;;;;;;;23.90;12.57;;;6.60;99.90;;;;;;5069991;28;20029;-53
2023/01/10 04:34:15;;;;;;;24.85;10.80;;;6.60;99.90;;;;;;5071762;28;20028;-53
2023/01/10 04:36:41;;;;;;;18.02;10.63;;;6.60;99.90;;;;;;5070536;28;20405;-52
2023/01/10 04:39:07;;;;;;;19.42;10.68;;;6.60;99.90;;;;;;5071653;28;20082;-53
2023/01/10 04:41:33;;;;;;;24.40;10.73;;;6.60;99.90;;;;;;5052841;28;20021;-53
2023/01/10 04:43:59;;;;;;;26.33;11.65;;;6.60;99.90;;;;;;5049817;28;20021;-52
2023/01/10 04:46:25;;;;;;;19.75;9.63;;;6.60;99.90;;;;;;5051536;28;20094;-50
2023/01/10 04:48:51;;;;;;;21.10;9.55;;;6.60;99.90;;;;;;5051899;28;20479;-51
2023/01/10 04:51:17;;;;;;;27.80;11.00;;;6.50;99.90;;;;;;5052249;28;20061;-51
2023/01/10 04:53:42;;;;;;;20.27;10.70;;;6.50;99.90;;;;;;5051291;28;20037;-51
2023/01/10 04:56:13;;;;;;;23.95;12.60;;;6.50;99.90;;;;;;5059463;28;20111;-52
2023/01/10 04:58:39;;;;;;;23.15;10.85;;;6.50;99.90;;;;;;5070189;28;20025;-50
2023/01/10 05:01:16;;;;;;;22.65;10.82;;;6.50;99.90;;;;;;5071163;28;20339;-52
2023/01/10 05:03:42;;;;;;;24.85;11.10;;;6.50;99.90;;;;;;5059681;28;20017;-52
2023/01/10 05:06:08;;;;;;;23.05;11.07;;;6.50;99.90;;;;;;5049052;28;20017;-49
2023/01/10 05:08:34;;;;;;;24.95;12.55;;;6.50;99.90;;;;;;5050173;28;20090;-50
2023/01/10 05:11:00;;;;;;;25.05;11.60;;;6.50;99.90;;;;;;5050916;28;20486;-50
2023/01/10 05:13:26;;;;;;;21.67;10.70;;;6.50;99.90;;;;;;5050849;28;20119;-53
2023/01/10 05:15:56;;;;;;;23.05;12.07;;;6.50;99.90;;;;;;5050044;28;20554;-50
2023/01/10 05:18:26;;;;;;;24.48;11.77;;;6.50;99.90;;;;;;5051048;28;20025;-51
2023/01/10 05:20:52;;;;;;;16.50;9.93;;;6.50;99.90;;;;;;5050947;28;20382;-49
2023/01/10 05:23:18;;;;;;;34.63;12.02;;;6.50;99.90;;;;;;5050480;28;20455;-52
2023/01/10 05:25:44;;;;;;;18.55;10.88;;;6.50;99.90;;;;;;5059173;28;20036;-52
2023/01/10 05:28:09;;;;;;;19.90;10.45;;;6.50;99.90;;;;;;5065574;28;20534;-52
2023/01/10 05:30:35;;;;;;;23.58;10.95;;;6.50;99.90;;;;;;5070698;28;20039;-50
2023/01/10 05:33:03;;;;;;;21.70;9.77;;;6.60;99.90;;;;;;5070324;28;20032;-49
2023/01/10 05:35:29;;;;;;;20.67;9.10;;;6.60;99.90;;;;;;5070691;28;20032;-52
2023/01/10 05:37:54;;;;;;;29.00;11.65;;;6.60;99.90;;;;;;5070770;28;20032;-51
2023/01/10 05:40:20;;;;;;;19.27;10.07;;;6.60;99.90;;;;;;5062091;28;20025;-49
2023/01/10 05:42:45;;;;;;;25.83;9.80;;;6.60;99.90;;;;;;5058405;28;20098;-49
2023/01/10 05:45:11;;;;;;;24.23;9.70;;;6.60;99.90;;;;;;5057017;28;20470;-50
2023/01/10 05:47:37;;;;;;;23.67;9.00;;;6.60;99.90;;;;;;5065559;28;20029;-52
2023/01/10 05:50:03;;;;;;;23.85;8.75;;;6.60;99.90;;;;;;5069171;28;20222;-49
2023/01/10 05:52:29;;;;;;;25.15;8.85;;;6.60;99.90;;;;;;5069853;28;20548;-52
2023/01/10 05:54:54;;;;;;;22.95;8.65;;;6.60;99.90;;;;;;5069884;28;20440;-49
2023/01/10 05:57:21;;;;;;;16.75;7.40;;;6.50;99.90;;;;;;5061657;28;20111;-49
2023/01/10 05:59:46;;;;;;;20.45;7.57;;;6.60;99.90;;;;;;5069979;28;20393;-51
2023/01/10 06:02:12;;;;;;;19.15;6.70;;;6.60;99.90;;;;;;5069320;28;20040;-51
2023/01/10 06:04:38;;;;;;;12.90;6.60;;;6.60;99.90;;;;;;5068636;28;20031;-51
2023/01/10 06:07:04;;;;;;;23.35;6.65;;;6.50;99.90;;;;;;5070282;28;20079;-52
2023/01/10 06:09:29;;;;;;;19.55;6.30;;;6.50;99.90;;;;;;5068151;28;20477;-49
2023/01/10 06:11:55;;;;;;;19.25;5.55;;;6.50;99.90;;;;;;5049123;28;20402;-49
2023/01/10 06:14:21;;;;;;;21.95;6.38;;;6.50;99.90;;;;;;5050285;28;20387;-51
2023/01/10 06:16:46;;;;;;;16.90;5.35;;;6.50;99.90;;;;;;5050233;28;20032;-51
2023/01/10 06:19:13;;;;;;;23.27;5.85;;;6.50;99.90;;;;;;5050053;28;20025;-51
2023/01/10 06:21:40;;;;;;;20.77;5.78;;;6.50;99.90;;;;;;5049337;28;20127;-51
2023/01/10 06:24:06;;;;;;;19.25;5.10;;;6.50;99.90;;;;;;5048117;28;20116;-49
2023/01/10 06:26:31;;;;;;;16.40;5.40;;;6.60;99.90;;;;;;5058647;28;20393;-49
2023/01/10 06:28:58;;;;;;;16.77;5.65;;;6.60;99.90;;;;;;5060927;28;20020;-49
2023/01/10 06:31:24;;;;;;;18.42;5.28;;;6.50;99.90;;;;;;5047238;28;20025;-48
2023/01/10 06:33:50;;;;;;;13.63;5.72;;;6.50;99.90;;;;;;5040176;28;20075;-51
2023/01/10 06:36:16;;;;;;;21.05;6.43;;;6.50;99.90;;;;;;5048257;28;20045;-49
2023/01/10 06:38:42;;;;;;;12.90;5.47;;;6.50;99.90;;;;;;5049498;28;20100;-48
2023/01/10 06:41:13;;;;;;;19.40;6.93;;;6.50;99.90;;;;;;5059543;28;20494;-48
2023/01/10 06:43:44;;;;;;;20.58;5.30;;;6.40;99.90;;;;;;5042834;28;20017;-50
2023/01/10 06:46:11;;;;;;;;;;;6.40;99.90;;;;;;5038792;28;20027;-48
2023/01/10 06:48:37;;;;;;;13.88;5.13;;;6.30;99.90;;;;;;5041791;28;19951;-48
2023/01/10 06:51:04;;;;;;;18.25;5.90;;;6.20;99.90;;;;;;5028611;28;20033;-50
2023/01/10 06:53:31;;;;;;;24.23;6.05;;;6.20;99.90;;;;;;5040417;28;20605;-48
2023/01/10 06:55:57;;;;;;;20.00;6.53;;;6.20;99.90;;;;;;5048580;28;20066;-49
2023/01/10 06:58:23;;;;;;;18.60;5.75;;;6.10;99.90;;;;;;5028832;28;20117;-48
2023/01/10 07:00:49;;;;;;;25.08;7.22;;;6.10;99.90;;;;;;5025990;28;20018;-47
2023/01/10 07:03:14;;;;;;;30.90;7.60;;;6.00;99.90;;;;;;5027713;28;20091;-48
2023/01/10 07:05:40;;;;;;;25.90;6.53;;;6.00;99.90;;;;;;5048253;28;20035;-51
2023/01/10 07:08:06;;;;;;;20.20;6.00;;;5.90;99.90;;;;;;5044881;28;20033;-49
2023/01/10 07:10:32;;;;;;;24.08;6.97;;;5.90;99.90;;;;;;5047393;28;20090;-51
2023/01/10 07:12:58;;;;;;;22.95;6.75;;;5.80;99.90;;;;;;5047934;28;20116;-49
2023/01/10 07:15:25;;;;;;;21.98;7.00;;;5.80;99.90;;;;;;5045044;28;20051;-49
2023/01/10 07:17:51;;;;;;;22.58;6.88;;;5.80;99.90;;;;;;5046048;28;20120;-49
2023/01/10 07:20:17;;;;;;;19.65;6.50;;;5.80;99.90;;;;;;5044124;28;20115;-52
2023/01/10 07:22:43;;;;;;;21.73;6.80;;;5.80;99.90;;;;;;5058190;28;20032;-50
2023/01/10 07:25:08;;;;;;;29.15;7.40;;;5.80;99.90;;;;;;5046623;28;20037;-49
2023/01/10 07:27:34;;;;;;;23.90;6.80;;;5.80;99.90;;;;;;5051340;28;20390;-49
2023/01/10 07:30:00;;;;;;;20.67;7.18;;;5.80;99.90;;;;;;5061705;28;20029;-50
2023/01/10 07:32:26;;;;;;;24.73;6.93;;;5.80;99.90;;;;;;5067897;28;20483;-50
2023/01/10 07:34:51;;;;;;;22.73;8.10;;;5.90;99.90;;;;;;5056294;28;20029;-49
2023/01/10 07:37:17;;;;;;;20.65;6.78;;;5.90;99.90;;;;;;5034763;28;20033;-49
2023/01/10 07:39:43;;;;;;;23.10;7.22;;;5.90;99.90;;;;;;5038809;28;20081;-51
2023/01/10 07:42:09;;;;;;;25.10;7.10;;;5.90;99.90;;;;;;5047652;28;20017;-48
2023/01/10 07:44:34;;;;;;;18.00;5.75;;;5.90;99.90;;;;;;5046429;28;20110;-48
2023/01/10 07:47:00;;;;;;;17.98;7.55;;;5.90;99.90;;;;;;5047748;28;20109;-48
2023/01/10 07:49:25;;;;;;;23.67;6.47;;;6.00;99.90;;;;;;5042184;28;20116;-48
2023/01/10 07:51:51;;;;;;;22.63;6.90;;;6.00;99.90;;;;;;5047518;28;20028;-48
2023/01/10 07:54:17;;;;;;;20.95;7.72;;;6.00;99.90;;;;;;5047507;28;20017;-50
2023/01/10 07:56:42;;;;;;;31.88;7.18;;;6.10;99.90;;;;;;5057654;28;20043;-49
2023/01/10 07:59:08;;;;;;;18.27;6.47;;;6.10;99.90;;;;;;5056267;28;20053;-49
2023/01/10 08:01:34;;;;;;;27.45;7.38;;;6.10;99.90;;;;;;5048246;28;20039;-48
2023/01/10 08:03:59;;;;;;;25.77;7.38;;;6.20;99.90;;;;;;5042894;28;20390;-51
2023/01/10 08:06:25;;;;;;;29.85;7.38;;;6.20;99.90;;;;;;5053798;28;20055;-49
2023/01/10 08:08:50;;;;;;;22.67;8.38;;;6.20;99.90;;;;;;5068268;28;20086;-48
2023/01/10 08:11:16;;;;;;;24.30;7.45;;;6.30;99.90;;;;;;5046560;28;20035;-49
2023/01/10 08:13:42;;;;;;;21.77;7.35;;;6.30;99.90;;;;;;5033508;28;20068;-48
2023/01/10 08:16:07;;;;;;;25.38;7.88;;;6.20;99.90;;;;;;5054069;28;20115;-49
2023/01/10 08:18:34;;;;;;;20.90;7.90;;;6.20;99.90;;;;;;5065283;28;20668;-48
2023/01/10 08:21:00;;;;;;;24.25;7.22;;;6.30;99.90;;;;;;5066775;28;20617;-49
2023/01/10 08:23:25;;;;;;;25.23;7.15;;;6.40;99.90;;;;;;5047010;28;20071;-48
2023/01/10 08:25:51;;;;;;;23.83;8.55;;;6.40;99.90;;;;;;5050050;28;20021;-48
2023/01/10 08:28:17;;;;;;;23.02;7.97;;;6.40;99.90;;;;;;5057702;28;20116;-48
2023/01/10 08:30:43;;;;;;;16.45;8.75;;;6.50;99.90;;;;;;5064411;28;20034;-49
2023/01/10 08:33:11;;;;;;;21.73;7.40;;;6.60;99.90;;;;;;5064906;28;20173;-53
2023/01/10 08:35:41;;;;;;;26.15;8.00;;;6.50;99.90;;;;;;5053145;28;20036;-51
2023/01/10 08:38:09;;;;;;;24.50;8.85;;;6.50;99.90;;;;;;5059104;28;20338;-48
2023/01/10 08:40:35;;;;;;;18.58;8.10;;;6.60;99.90;;;;;;5070675;28;20489;-49
2023/01/10 08:43:06;;;;;;;25.05;7.43;;;6.60;99.90;;;;;;5070508;28;20513;-49
2023/01/10 08:45:32;;;;;;;31.23;8.35;;;6.60;99.90;;;;;;5071161;28;20016;-56
2023/01/10 08:47:58;;;;;;;24.23;7.95;;;6.70;99.90;;;;;;5051976;28;20027;-50
2023/01/10 08:50:24;;;;;;;31.85;8.35;;;6.70;99.90;;;;;;5066094;28;20033;-49
2023/01/10 08:52:50;;;;;;;17.40;8.35;;;6.70;99.90;;;;;;5068953;28;20028;-47
2023/01/10 08:55:17;;;;;;;15.40;7.38;;;6.70;99.90;;;;;;5064217;28;20394;-48
2023/01/10 08:57:43;;;;;;;25.42;8.18;;;6.60;99.90;;;;;;5062665;28;20123;-51
2023/01/10 09:00:11;;;;;;;26.75;7.65;;;6.70;99.90;;;;;;5053891;28;20298;-49
2023/01/10 09:02:37;;;;;;;25.55;10.68;;;6.70;99.90;;;;;;5060061;28;20017;-51
2023/01/10 09:05:03;;;;;;;27.98;9.80;;;6.70;99.90;;;;;;5050717;28;20037;-50
2023/01/10 09:07:29;;;;;;;28.10;9.20;;;6.80;99.90;;;;;;5050330;28;20112;-48
2023/01/10 09:09:55;;;;;;;23.15;9.85;;;6.80;99.90;;;;;;5050355;28;20024;-47
2023/01/10 09:15:05;;;;;;;28.67;10.18;;;6.90;99.90;;;;;;5068660;28;20125;-48
2023/01/10 09:17:31;;;;;;;29.88;9.15;;;6.90;99.90;;;;;;5058896;28;20013;-48
2023/01/10 09:19:56;;;;;;;22.13;9.52;;;7.00;99.90;;;;;;5068536;28;20047;-48
2023/01/10 09:22:22;;;;;;;24.33;10.05;;;6.90;99.90;;;;;;5064701;28;20485;-48
2023/01/10 09:24:48;;;;;;;23.35;10.07;;;6.90;99.90;;;;;;5062102;28;20024;-47
2023/01/10 09:27:14;;;;;;;24.05;8.60;;;6.90;99.90;;;;;;5066340;28;20020;-49
2023/01/10 09:29:40;;;;;;;30.92;9.70;;;6.90;99.90;;;;;;5062247;28;20028;-48
2023/01/10 09:32:06;;;;;;;25.98;9.80;;;6.90;99.90;;;;;;5068376;28;20052;-47
2023/01/10 09:34:31;;;;;;;27.90;9.23;;;6.90;99.90;;;;;;5061559;28;20024;-47
2023/01/10 09:36:57;;;;;;;22.88;8.23;;;6.90;99.90;;;;;;5045230;28;20040;-50
2023/01/10 09:39:24;;;;;;;24.15;8.93;;;7.20;99.90;;;;;;5044717;28;20097;-48
2023/01/10 09:42:09;;;;;;;22.63;8.10;;;7.40;99.90;;;;;;5048089;28;20031;-49
2023/01/10 09:45:01;;;;;;;29.27;8.07;;;7.70;99.90;;;;;;5049185;28;20024;-50
2023/01/10 09:47:54;;;;;;;27.10;8.73;;;7.80;99.90;;;;;;5037786;28;20029;-51
2023/01/10 09:50:29;;;;;;;23.42;8.13;;;7.90;99.90;;;;;;5049257;28;20017;-50
2023/01/10 09:53:00;;;;;;;21.80;8.73;;;8.10;99.90;;;;;;5049159;28;20033;-48
2023/01/10 09:55:31;;;;;;;17.55;8.13;;;8.20;99.90;;;;;;5048491;28;20069;-52
2023/01/10 09:58:00;;;;;;;24.58;7.50;;;8.10;99.90;;;;;;5048312;28;20074;-51
2023/01/10 10:00:42;;;;;;;18.73;7.85;;;8.00;99.90;;;;;;5047136;28;20107;-50
2023/01/10 10:03:21;;;;;;;20.23;8.25;;;8.00;99.90;;;;;;5044432;28;20018;-52
2023/01/10 10:05:48;;;;;;;17.20;7.45;;;7.90;99.90;;;;;;5047204;28;20017;-49
2023/01/10 10:08:18;;;;;;;35.70;8.50;;;7.80;99.90;;;;;;5051151;28;20013;-42
2023/01/10 10:11:16;;;;;;;27.37;7.60;;;7.70;99.90;;;;;;5048514;28;20028;-42
2023/01/10 10:14:03;;;;;;;24.05;7.80;;;7.70;99.90;;;;;;5021159;28;20047;-41
2023/01/10 10:16:47;;;;;;;13.05;7.18;;;7.60;99.90;;;;;;5048571;28;20066;-41
2023/01/10 10:19:28;;;;;;;27.02;8.00;;;7.50;99.90;;;;;;5046365;28;20044;-40
2023/01/10 10:22:19;;;;;;;21.45;8.45;;;7.40;99.90;;;;;;5046693;28;20123;-41
2023/01/10 10:24:57;;;;;;;19.67;7.75;;;7.50;99.90;;;;;;5045572;28;20192;-41
2023/01/10 10:27:36;;;;;;;21.23;7.53;;;7.50;99.90;;;;;;5048448;28;20017;-41
2023/01/10 10:30:25;;;;;;;29.63;7.93;;;7.60;99.90;;;;;;5048873;28;20032;-41
2023/01/10 10:33:15;;;;;;;28.10;7.63;;;7.60;99.90;;;;;;5047368;28;20025;-49
2023/01/10 10:35:49;;;;;;;20.50;8.43;;;7.60;99.90;;;;;;5048464;28;20036;-51
2023/01/10 10:38:36;;;;;;;18.25;8.88;;;7.50;99.90;;;;;;5065461;28;20695;-41
2023/01/10 10:41:02;;;;;;;30.27;8.02;;;7.50;99.90;;;;;;5069031;28;20028;-41
2023/01/10 10:43:32;;;;;;;19.40;7.13;;;7.50;99.90;;;;;;5069834;28;20466;-41
2023/01/10 10:46:11;;;;;;;22.80;7.50;;;7.60;99.90;;;;;;5053243;28;20029;-41
2023/01/10 10:48:52;;;;;;;25.25;8.02;;;7.60;99.90;;;;;;5068609;28;20078;-41
2023/01/10 10:51:36;;;;;;;;;;;7.60;99.90;;;;;;5069415;28;20044;-46
2023/01/10 10:54:02;;;;;;;14.85;6.40;;;7.60;99.90;;;;;;5069286;28;19915;-45
2023/01/10 10:56:32;;;;;;;16.75;7.50;;;7.60;99.90;;;;;;5055214;28;20217;-40
2023/01/10 10:58:59;;;;;;;22.85;7.03;;;7.70;99.90;;;;;;5068630;28;20020;-42
2023/01/10 11:01:25;;;;;;;24.98;7.75;;;7.70;99.90;;;;;;5065888;28;20550;-41
2023/01/10 11:04:05;;;;;;;17.80;7.28;;;7.70;99.90;;;;;;5048726;28;20036;-42
2023/01/10 11:06:32;;;;;;;14.43;7.75;;;7.70;99.90;;;;;;5051847;28;20075;-44
2023/01/10 11:09:02;;;;;;;25.38;8.27;;;7.60;99.90;;;;;;5049086;28;20037;-41
2023/01/10 11:11:32;;;;;;;18.30;6.30;;;7.70;99.90;;;;;;5049018;28;20024;-40
2023/01/10 11:14:00;;;;;;;29.00;8.15;;;7.80;99.90;;;;;;5049161;28;20036;-41
2023/01/10 11:16:29;;;;;;;24.58;7.78;;;7.80;99.90;;;;;;5047383;28;20119;-41
2023/01/10 11:19:19;;;;;;;20.20;6.57;;;7.80;99.90;;;;;;5061260;28;20154;-41
2023/01/10 11:21:48;;;;;;;13.77;6.82;;;7.80;99.90;;;;;;5050666;28;20017;-44
2023/01/10 11:24:27;;;;;;;23.48;9.00;;;7.80;99.90;;;;;;5049507;28;20684;-40
2023/01/10 11:26:53;;;;;;;19.65;7.00;;;7.80;99.90;;;;;;5051484;28;20017;-42
2023/01/10 11:29:42;;;;;;;16.05;6.43;;;7.90;99.90;;;;;;5049388;28;20063;-41
2023/01/10 11:32:15;;;;;;;18.80;6.55;;;7.80;99.90;;;;;;5050822;28;20029;-41
2023/01/10 11:34:54;;;;;;;24.95;7.40;;;8.00;99.90;;;;;;5051713;28;20104;-40
2023/01/10 11:37:23;;;;;;;17.67;6.00;;;8.10;99.90;;;;;;5047663;28;20017;-41
2023/01/10 11:40:06;;;;;;;15.25;6.95;;;8.10;99.90;;;;;;5053121;28;20029;-42
2023/01/10 11:42:31;;;;;;;23.50;6.93;;;8.20;99.90;;;;;;5068333;28;20051;-41
2023/01/10 11:45:18;;;;;;;28.25;6.57;;;8.20;99.90;;;;;;5058666;28;20027;-41
2023/01/10 11:47:54;;;;;;;23.90;7.03;;;8.30;99.90;;;;;;5055790;28;20013;-41
2023/01/10 11:50:27;;;;;;;16.83;6.72;;;8.30;99.90;;;;;;5061318;28;20028;-41
2023/01/10 11:52:53;;;;;;;22.40;8.18;;;8.30;99.90;;;;;;5069246;28;20115;-41
2023/01/10 11:55:30;;;;;;;22.25;7.15;;;8.40;99.90;;;;;;5050144;28;20066;-41
2023/01/10 11:58:07;;;;;;;21.40;7.68;;;8.50;99.90;;;;;;5043412;28;20040;-42
2023/01/10 12:00:48;;;;;;;20.85;7.90;;;8.60;99.90;;;;;;5050493;28;20068;-45
2023/01/10 12:03:27;;;;;;;24.73;8.93;;;8.50;99.90;;;;;;5058464;28;20152;-42
2023/01/10 12:06:07;;;;;;;18.65;6.97;;;8.50;99.90;;;;;;5054024;28;20556;-42
2023/01/10 12:08:36;;;;;;;21.05;7.35;;;8.40;99.90;;;;;;5061228;28;20025;-42
2023/01/10 12:11:16;;;;;;;19.38;7.38;;;8.50;99.90;;;;;;5051983;28;20037;-41
2023/01/10 12:13:47;;;;;;;;;;;8.60;99.90;;;;;;5055716;28;20029;-41
2023/01/10 12:16:18;;;;;;;22.52;8.65;;;8.30;99.90;;;;;;5052922;28;20262;-41
2023/01/10 12:18:44;;;;;;;20.55;7.38;;;8.30;99.90;;;;;;5059704;28;20024;-46
2023/01/10 12:21:13;;;;;;;23.83;8.07;;;8.20;99.90;;;;;;5052705;28;20029;-42
2023/01/10 12:23:42;;;;;;;31.10;10.27;;;8.20;99.90;;;;;;5051696;28;20021;-40
2023/01/10 12:26:12;;;;;;;26.20;7.85;;;8.10;99.90;;;;;;5049250;28;20017;-41
2023/01/10 12:28:41;;;;;;;26.85;8.52;;;8.10;99.90;;;;;;5050897;28;20494;-41
2023/01/10 12:31:12;;;;;;;21.10;7.80;;;8.20;99.90;;;;;;5050488;28;20032;-40
2023/01/10 12:33:45;;;;;;;19.75;8.68;;;8.40;99.90;;;;;;5050470;28;20032;-41
2023/01/10 12:36:32;;;;;;;28.42;8.77;;;8.50;99.90;;;;;;5051422;28;20028;-42
2023/01/10 12:39:29;;;;;;;27.00;8.27;;;8.60;99.90;;;;;;5049568;28;20022;-41
2023/01/10 12:45:19;;;;;;;15.40;7.18;;;8.90;99.90;;;;;;5049302;28;20036;-41
2023/01/10 12:47:45;;;;;;;;;;;8.70;99.90;;;;;;5053425;28;20530;-40
2023/01/10 12:50:31;;;;;;;34.40;8.18;;;8.80;99.90;;;;;;5051164;28;19911;-41
2023/01/10 12:55:56;;;;;;;22.33;6.60;;;8.60;99.90;;;;;;5049118;28;20044;-42
2023/01/10 12:58:42;;;;;;;24.38;7.22;;;8.60;99.90;;;;;;5051374;28;20116;-42
2023/01/10 13:01:13;;;;;;;21.70;6.80;;;8.60;99.90;;;;;;5048015;28;20059;-40
2023/01/10 13:03:42;;;;;;;19.45;7.05;;;8.30;99.90;;;;;;5053165;28;20025;-40
2023/01/10 13:06:32;;;;;;;22.15;7.03;;;8.30;99.90;;;;;;5040055;28;20073;-40
2023/01/10 13:09:02;;;;;;;17.13;6.15;;;8.20;99.90;;;;;;5041800;28;20047;-41
2023/01/10 13:11:35;;;;;;;20.40;6.78;;;8.20;99.90;;;;;;5040073;28;20067;-42
2023/01/10 13:14:03;;;;;;;24.63;5.97;;;8.30;99.90;;;;;;5031148;28;20080;-41
2023/01/10 13:16:29;;;;;;;21.52;6.60;;;8.20;99.90;;;;;;5057173;28;20543;-41
2023/01/10 13:19:10;;;;;;;22.50;7.35;;;8.10;99.90;;;;;;5057685;28;20033;-41